createdAt,value
2019-02-07T00:00:53.551Z,66.38
2019-02-07T00:01:53.537Z,68.28
2019-02-07T00:02:53.529Z,68.69
2019-02-07T00:03:53.516Z,67.34
2019-02-07T00:04:53.507Z,64.44
2019-02-07T00:05:53.497Z,65.17
2019-02-07T00:06:54.706Z,65.51
2019-02-07T00:07:53.480Z,68.82
2019-02-07T00:08:53.462Z,66.13
2019-02-07T00:09:53.449Z,65.20
2019-02-07T00:10:53.439Z,65.51
2019-02-07T00:11:53.429Z,65.41
2019-02-07T00:12:53.417Z,65.41
2019-02-07T00:13:53.407Z,64.99
2019-02-07T00:14:53.394Z,65.30
2019-02-07T00:15:53.387Z,64.13
2019-02-07T00:16:53.375Z,64.55
2019-02-07T00:17:53.365Z,65.17
2019-02-07T00:18:53.358Z,65.17
2019-02-07T00:19:53.340Z,65.58
2019-02-07T00:20:53.333Z,65.89
2019-02-07T00:21:53.320Z,67.34
2019-02-07T00:22:53.310Z,67.44
2019-02-07T00:23:53.298Z,66.96
2019-02-07T00:24:53.288Z,66.75
2019-02-07T00:25:53.276Z,66.85
2019-02-07T00:26:53.268Z,69.76
2019-02-07T00:27:53.255Z,68.31
2019-02-07T00:28:53.249Z,67.79
2019-02-07T00:29:53.234Z,67.79
2019-02-07T00:30:53.223Z,68.51
2019-02-07T00:31:53.210Z,68.93
2019-02-07T00:32:53.202Z,67.89
2019-02-07T00:33:53.288Z,67.79
2019-02-07T00:34:53.183Z,68.10
2019-02-07T00:35:53.168Z,67.99
2019-02-07T00:36:53.161Z,67.37
2019-02-07T00:37:53.147Z,67.68
2019-02-07T00:38:53.135Z,67.68
2019-02-07T00:39:53.125Z,67.37
2019-02-07T00:40:53.115Z,68.44
2019-02-07T00:41:53.103Z,68.96
2019-02-07T00:42:53.092Z,69.89
2019-02-07T00:43:53.085Z,69.37
2019-02-07T00:44:53.725Z,68.75
2019-02-07T00:45:53.060Z,68.54
2019-02-07T00:46:53.047Z,68.34
2019-02-07T00:47:53.039Z,68.54
2019-02-07T00:48:53.026Z,70.10
2019-02-07T00:49:53.014Z,70.10
2019-02-07T00:50:53.004Z,68.85
2019-02-07T00:51:52.994Z,68.02
2019-02-07T00:52:52.981Z,67.51
2019-02-07T00:53:52.972Z,67.37
2019-02-07T00:54:52.961Z,67.16
2019-02-07T00:55:52.949Z,66.54
2019-02-07T00:56:52.941Z,66.75
2019-02-07T00:57:52.928Z,67.06
2019-02-07T00:58:52.918Z,67.68
2019-02-07T00:59:52.907Z,69.03
2019-02-07T01:00:52.894Z,68.51
2019-02-07T01:01:52.883Z,68.51
2019-02-07T01:02:52.872Z,68.62
2019-02-07T01:03:52.862Z,69.55
2019-02-07T01:04:52.851Z,69.86
2019-02-07T01:05:52.839Z,70.38
2019-02-07T01:06:52.830Z,70.90
2019-02-07T01:07:52.818Z,71.42
2019-02-07T01:08:52.806Z,71.83
2019-02-07T01:09:52.795Z,70.72
2019-02-07T01:10:52.785Z,71.35
2019-02-07T01:11:52.776Z,70.83
2019-02-07T01:12:52.764Z,70.52
2019-02-07T01:13:52.752Z,70.72
2019-02-07T01:15:01.652Z,70.72
2019-02-07T01:17:39.464Z,70.10
2019-02-07T01:18:39.445Z,69.27
2019-02-07T01:19:39.435Z,68.44
2019-02-07T01:20:39.424Z,67.19
2019-02-07T01:21:39.414Z,66.85
2019-02-07T01:22:39.405Z,65.82
2019-02-07T01:23:39.393Z,66.85
2019-02-07T01:24:39.384Z,66.03
2019-02-07T01:25:39.370Z,65.06
2019-02-07T01:26:39.361Z,66.75
2019-02-07T01:27:39.349Z,65.61
2019-02-07T01:28:39.337Z,65.82
2019-02-07T01:29:39.328Z,65.48
2019-02-07T01:30:39.317Z,65.27
2019-02-07T01:31:39.305Z,64.13
2019-02-07T01:32:39.297Z,64.75
2019-02-07T01:33:39.283Z,64.55
2019-02-07T01:34:39.274Z,66.21
2019-02-07T01:35:39.263Z,68.07
2019-02-07T01:36:39.251Z,67.76
2019-02-07T01:37:39.242Z,68.28
2019-02-07T01:38:39.233Z,64.23
2019-02-07T01:39:39.219Z,63.82
2019-02-07T01:40:39.214Z,64.34
2019-02-07T01:41:39.197Z,65.76
2019-02-07T01:42:39.188Z,66.21
2019-02-07T01:43:39.180Z,65.66
2019-02-07T01:44:39.170Z,65.24
2019-02-07T01:45:39.152Z,66.28
2019-02-07T01:46:39.148Z,67.73
2019-02-07T01:47:39.130Z,68.35
2019-02-07T01:48:39.120Z,68.17
2019-02-07T01:49:39.110Z,68.59
2019-02-07T01:50:39.101Z,68.48
2019-02-07T01:51:39.089Z,68.28
2019-02-07T01:52:39.076Z,67.76
2019-02-07T01:53:39.067Z,67.65
2019-02-07T01:54:39.057Z,69.21
2019-02-07T01:55:39.046Z,68.38
2019-02-07T01:56:39.032Z,68.79
2019-02-07T01:57:39.024Z,67.76
2019-02-07T01:58:39.013Z,68.48
2019-02-07T01:59:39.003Z,70.56
2019-02-07T02:00:38.994Z,72.77
2019-02-07T02:01:38.981Z,72.87
2019-02-07T02:02:38.971Z,72.66
2019-02-07T02:03:38.958Z,70.38
2019-02-07T02:04:38.951Z,70.38
2019-02-07T02:05:38.944Z,71.11
2019-02-07T02:06:38.928Z,71.69
2019-02-07T02:07:38.916Z,72.21
2019-02-07T02:08:38.906Z,72.52
2019-02-07T02:09:38.895Z,72.83
2019-02-07T02:10:38.883Z,74.18
2019-02-07T02:11:38.874Z,74.08
2019-02-07T02:12:38.861Z,73.35
2019-02-07T02:13:38.850Z,72.52
2019-02-07T02:14:38.841Z,72.21
2019-02-07T02:15:38.831Z,72.97
2019-02-07T02:16:38.819Z,73.38
2019-02-07T02:17:38.809Z,72.87
2019-02-07T02:18:38.796Z,71.11
2019-02-07T02:19:38.786Z,71.11
2019-02-07T02:20:38.779Z,73.80
2019-02-07T02:21:38.765Z,73.38
2019-02-07T02:22:38.753Z,73.63
2019-02-07T02:23:38.743Z,73.38
2019-02-07T02:24:38.731Z,71.42
2019-02-07T02:25:38.720Z,72.77
2019-02-07T02:26:38.712Z,72.49
2019-02-07T02:27:38.701Z,69.55
2019-02-07T02:28:38.691Z,67.68
2019-02-07T02:29:38.679Z,68.69
2019-02-07T02:30:38.669Z,67.65
2019-02-07T02:31:38.659Z,68.28
2019-02-07T02:32:38.650Z,68.79
2019-02-07T02:33:38.636Z,66.61
2019-02-07T02:34:38.627Z,66.79
2019-02-07T02:35:38.616Z,67.41
2019-02-07T02:36:38.603Z,68.66
2019-02-07T02:37:38.592Z,69.18
2019-02-07T02:38:38.582Z,68.87
2019-02-07T02:39:38.577Z,68.97
2019-02-07T02:40:38.568Z,68.66
2019-02-07T02:41:38.549Z,69.18
2019-02-07T02:42:38.537Z,69.18
2019-02-07T02:43:38.531Z,67.93
2019-02-07T02:44:38.519Z,67.93
2019-02-07T02:45:38.513Z,68.56
2019-02-07T02:46:38.497Z,68.87
2019-02-07T02:47:38.485Z,68.35
2019-02-07T02:48:38.478Z,67.62
2019-02-07T02:49:38.466Z,67.10
2019-02-07T02:50:38.460Z,67.52
2019-02-07T02:51:38.444Z,68.66
2019-02-07T02:52:40.311Z,68.24
2019-02-07T02:53:38.422Z,66.90
2019-02-07T02:54:38.410Z,66.48
2019-02-07T02:55:38.400Z,66.55
2019-02-07T02:56:38.393Z,70.94
2019-02-07T02:57:38.376Z,71.14
2019-02-07T02:58:38.366Z,68.76
2019-02-07T02:59:38.357Z,66.18
2019-02-07T03:00:38.347Z,66.18
2019-02-07T03:01:38.335Z,65.83
2019-02-07T03:02:38.323Z,67.49
2019-02-07T03:03:38.314Z,69.04
2019-02-07T03:04:38.304Z,70.28
2019-02-07T03:05:38.292Z,71.42
2019-02-07T03:06:38.282Z,71.83
2019-02-07T03:07:38.270Z,71.35
2019-02-07T03:08:38.266Z,70.62
2019-02-07T03:09:38.253Z,72.08
2019-02-07T03:10:38.239Z,72.18
2019-02-07T03:11:38.228Z,72.70
2019-02-07T03:12:38.215Z,72.70
2019-02-07T03:13:38.207Z,73.15
2019-02-07T03:14:38.200Z,73.21
2019-02-07T03:15:49.059Z,72.73
2019-02-07T03:16:39.191Z,73.66
2019-02-07T03:17:38.161Z,74.29
2019-02-07T03:18:38.158Z,73.87
2019-02-07T03:19:38.139Z,73.98
2019-02-07T03:20:38.129Z,73.98
2019-02-07T03:21:38.117Z,74.08
2019-02-07T03:22:38.107Z,75.21
2019-02-07T03:23:38.098Z,75.84
2019-02-07T03:24:38.087Z,75.36
2019-02-07T03:25:38.074Z,76.81
2019-02-07T03:26:38.063Z,76.08
2019-02-07T03:27:38.055Z,73.80
2019-02-07T03:28:38.045Z,76.08
2019-02-07T03:29:38.031Z,76.29
2019-02-07T03:30:38.021Z,76.81
2019-02-07T03:31:38.014Z,77.22
2019-02-07T03:32:38.034Z,76.91
2019-02-07T03:33:37.990Z,77.02
2019-02-07T03:34:37.977Z,77.95
2019-02-07T03:35:37.968Z,77.53
2019-02-07T03:36:37.955Z,77.43
2019-02-07T03:37:37.949Z,77.74
2019-02-07T03:38:37.935Z,78.16
2019-02-07T03:39:37.928Z,78.16
2019-02-07T03:40:37.913Z,79.09
2019-02-07T03:41:37.902Z,79.33
2019-02-07T03:42:37.965Z,79.95
2019-02-07T03:43:37.914Z,79.02
2019-02-07T03:44:37.871Z,79.85
2019-02-07T03:45:37.857Z,80.26
2019-02-07T03:46:37.848Z,81.09
2019-02-07T03:47:37.836Z,80.57
2019-02-07T03:48:37.828Z,80.88
2019-02-07T03:49:37.825Z,80.26
2019-02-07T03:50:37.807Z,79.85
2019-02-07T03:51:37.796Z,82.44
2019-02-07T03:52:37.786Z,83.17
2019-02-07T03:53:37.779Z,83.73
2019-02-07T03:54:37.763Z,84.35
2019-02-07T03:55:37.750Z,85.29
2019-02-07T03:56:37.739Z,85.49
2019-02-07T03:57:37.733Z,85.18
2019-02-07T03:58:37.717Z,84.97
2019-02-07T03:59:37.710Z,85.91
2019-02-07T04:00:37.698Z,86.98
2019-02-07T04:01:37.684Z,87.09
2019-02-07T04:02:40.503Z,86.77
2019-02-07T04:03:37.663Z,87.60
2019-02-07T04:04:37.654Z,88.33
2019-02-07T04:05:37.642Z,88.12
2019-02-07T04:06:37.632Z,87.92
2019-02-07T04:07:37.621Z,88.64
2019-02-07T04:08:37.615Z,89.27
2019-02-07T04:09:37.599Z,89.00
2019-02-07T04:10:37.590Z,88.89
2019-02-07T04:11:37.577Z,88.48
2019-02-07T04:12:37.573Z,85.98
2019-02-07T04:13:37.561Z,87.86
2019-02-07T04:14:37.547Z,89.31
2019-02-07T04:15:37.532Z,88.51
2019-02-07T04:16:37.592Z,87.48
2019-02-07T04:17:37.515Z,86.92
2019-02-07T04:18:37.503Z,86.40
2019-02-07T04:19:37.491Z,86.61
2019-02-07T04:20:37.481Z,87.13
2019-02-07T04:21:37.471Z,87.54
2019-02-07T04:22:37.460Z,87.29
2019-02-07T04:23:37.448Z,87.29
2019-02-07T04:24:37.440Z,87.71
2019-02-07T04:25:37.428Z,87.81
2019-02-07T04:26:37.419Z,87.60
2019-02-07T04:27:37.406Z,87.40
2019-02-07T04:28:37.394Z,87.60
2019-02-07T04:29:37.389Z,88.69
2019-02-07T04:30:37.375Z,89.00
2019-02-07T04:31:37.363Z,88.79
2019-02-07T04:32:37.356Z,88.17
2019-02-07T04:33:37.339Z,88.23
2019-02-07T04:34:37.336Z,87.71
2019-02-07T04:35:37.318Z,86.98
2019-02-07T04:36:37.313Z,87.67
2019-02-07T04:37:37.300Z,87.88
2019-02-07T04:38:37.288Z,88.81
2019-02-07T04:39:37.278Z,89.02
2019-02-07T04:40:37.270Z,89.44
2019-02-07T04:41:37.256Z,89.64
2019-02-07T04:42:37.252Z,89.44
2019-02-07T04:43:37.245Z,89.75
2019-02-07T04:44:37.225Z,89.23
2019-02-07T04:45:37.211Z,89.44
2019-02-07T04:46:37.203Z,89.44
2019-02-07T04:47:37.198Z,88.64
2019-02-07T04:48:37.185Z,88.43
2019-02-07T04:49:37.176Z,87.92
2019-02-07T04:50:37.160Z,88.02
2019-02-07T04:51:37.151Z,89.06
2019-02-07T04:52:37.137Z,87.92
2019-02-07T04:53:37.129Z,88.64
2019-02-07T04:54:37.116Z,88.54
2019-02-07T04:55:37.108Z,88.64
2019-02-07T04:56:37.099Z,88.64
2019-02-07T04:57:37.086Z,88.43
2019-02-07T04:58:37.085Z,88.54
2019-02-07T04:59:37.064Z,87.81
2019-02-07T05:00:37.052Z,87.60
2019-02-07T05:01:37.045Z,87.57
2019-02-07T05:02:37.034Z,87.78
2019-02-07T05:03:37.020Z,88.19
2019-02-07T05:04:37.011Z,88.40
2019-02-07T05:05:37.000Z,88.64
2019-02-07T05:06:36.996Z,88.64
2019-02-07T05:07:36.980Z,88.95
2019-02-07T05:08:36.972Z,89.27
2019-02-07T05:09:36.958Z,89.78
2019-02-07T05:10:36.948Z,89.16
2019-02-07T05:11:36.935Z,88.95
2019-02-07T05:12:36.926Z,89.47
2019-02-07T05:13:36.917Z,89.06
2019-02-07T05:14:36.905Z,88.95
2019-02-07T05:15:36.896Z,89.06
2019-02-07T05:16:39.814Z,88.85
2019-02-07T05:17:58.057Z,87.05
2019-02-07T05:18:58.051Z,87.36
2019-02-07T05:19:58.034Z,87.26
2019-02-07T05:20:58.024Z,86.84
2019-02-07T05:21:58.013Z,87.05
2019-02-07T05:22:58.005Z,86.12
2019-02-07T05:23:57.995Z,86.74
2019-02-07T05:24:57.984Z,86.63
2019-02-07T05:25:57.970Z,84.18
2019-02-07T05:26:57.967Z,80.51
2019-02-07T05:27:57.959Z,79.58
2019-02-07T05:28:57.941Z,83.83
2019-02-07T05:29:57.961Z,84.25
2019-02-07T05:30:57.918Z,83.52
2019-02-07T05:31:57.906Z,80.51
2019-02-07T05:32:57.895Z,81.51
2019-02-07T05:33:57.887Z,82.13
2019-02-07T05:34:57.875Z,81.09
2019-02-07T05:35:57.864Z,81.92
2019-02-07T05:36:57.852Z,78.40
2019-02-07T05:37:57.844Z,78.71
2019-02-07T05:38:57.833Z,80.68
2019-02-07T05:39:57.829Z,83.65
2019-02-07T05:40:57.812Z,83.38
2019-02-07T05:41:57.799Z,82.75
2019-02-07T05:42:57.799Z,83.69
2019-02-07T05:43:57.781Z,79.85
2019-02-07T05:44:57.769Z,81.09
2019-02-07T05:45:57.760Z,81.30
2019-02-07T05:46:57.747Z,78.30
2019-02-07T05:47:57.748Z,79.44
2019-02-07T05:48:57.872Z,80.47
2019-02-07T05:49:57.716Z,79.30
2019-02-07T05:50:57.704Z,80.54
2019-02-07T05:51:57.695Z,82.96
2019-02-07T05:52:57.682Z,82.23
2019-02-07T05:53:57.793Z,81.61
2019-02-07T05:54:57.664Z,80.47
2019-02-07T05:55:57.651Z,82.34
2019-02-07T05:56:57.701Z,83.27
2019-02-07T05:57:57.629Z,84.52
2019-02-07T05:58:59.265Z,83.17
2019-02-07T05:59:57.661Z,79.74
2019-02-07T06:00:57.598Z,79.44
2019-02-07T06:01:57.587Z,79.85
2019-02-07T06:02:57.578Z,81.20
2019-02-07T06:03:57.565Z,81.82
2019-02-07T06:04:57.556Z,80.37
2019-02-07T06:05:57.545Z,80.16
2019-02-07T06:06:57.534Z,79.44
2019-02-07T06:07:57.524Z,81.40
2019-02-07T06:08:57.514Z,80.88
2019-02-07T06:09:57.505Z,78.71
2019-02-07T06:10:57.491Z,77.26
2019-02-07T06:11:57.483Z,77.95
2019-02-07T06:12:57.469Z,78.99
2019-02-07T06:13:57.459Z,80.02
2019-02-07T06:14:57.449Z,79.81
2019-02-07T06:15:57.437Z,80.12
2019-02-07T06:17:02.721Z,79.91
2019-02-07T06:17:57.418Z,78.74
2019-02-07T06:18:57.405Z,80.40
2019-02-07T06:19:57.395Z,81.64
2019-02-07T06:20:57.384Z,82.37
2019-02-07T06:21:57.379Z,81.12
2019-02-07T06:22:57.363Z,80.54
2019-02-07T06:23:57.352Z,76.19
2019-02-07T06:24:57.342Z,76.98
2019-02-07T06:25:57.333Z,77.74
2019-02-07T06:26:57.322Z,76.08
2019-02-07T06:27:57.310Z,77.19
2019-02-07T06:28:57.703Z,76.87
2019-02-07T06:29:57.290Z,76.36
2019-02-07T06:30:57.277Z,75.94
2019-02-07T06:31:57.269Z,75.73
2019-02-07T06:32:57.261Z,76.94
2019-02-07T06:33:57.247Z,76.73
2019-02-07T06:34:57.237Z,76.01
2019-02-07T06:35:57.229Z,75.50
2019-02-07T06:36:57.214Z,76.22
2019-02-07T06:37:57.202Z,77.46
2019-02-07T06:38:57.193Z,76.42
2019-02-07T06:39:57.182Z,77.67
2019-02-07T06:40:57.176Z,77.77
2019-02-07T06:41:57.161Z,78.50
2019-02-07T06:42:57.152Z,76.73
2019-02-07T06:43:57.149Z,76.94
2019-02-07T06:44:57.131Z,77.88
2019-02-07T06:45:57.120Z,78.36
2019-02-07T06:46:57.107Z,78.67
2019-02-07T06:47:57.099Z,77.67
2019-02-07T06:48:57.088Z,78.36
2019-02-07T06:49:57.076Z,78.88
2019-02-07T06:50:57.065Z,78.88
2019-02-07T06:51:57.054Z,78.81
2019-02-07T06:52:57.045Z,79.50
2019-02-07T06:53:57.035Z,78.08
2019-02-07T06:54:57.022Z,76.60
2019-02-07T06:55:57.012Z,77.01
2019-02-07T06:56:57.003Z,77.11
2019-02-07T06:57:56.990Z,77.42
2019-02-07T06:58:56.980Z,78.05
2019-02-07T06:59:56.969Z,77.42
2019-02-07T07:00:56.960Z,78.05
2019-02-07T07:01:56.949Z,78.25
2019-02-07T07:02:56.936Z,79.50
2019-02-07T07:03:57.733Z,79.60
2019-02-07T07:04:56.922Z,78.88
2019-02-07T07:05:56.907Z,80.32
2019-02-07T07:06:56.895Z,80.63
2019-02-07T07:07:56.884Z,81.15
2019-02-07T07:08:56.875Z,80.74
2019-02-07T07:09:56.864Z,80.74
2019-02-07T07:10:56.968Z,81.46
2019-02-07T07:11:56.869Z,82.39
2019-02-07T07:12:56.830Z,82.91
2019-02-07T07:13:56.821Z,82.91
2019-02-07T07:14:56.810Z,83.85
2019-02-07T07:15:56.798Z,84.57
2019-02-07T07:16:56.787Z,84.57
2019-02-07T07:17:56.774Z,83.99
2019-02-07T07:18:56.766Z,85.23
2019-02-07T07:19:56.757Z,85.96
2019-02-07T07:20:59.411Z,85.54
2019-02-07T07:21:56.744Z,85.75
2019-02-07T07:22:56.720Z,84.50
2019-02-07T07:23:56.712Z,85.33
2019-02-07T07:24:56.702Z,85.81
2019-02-07T07:25:56.691Z,85.44
2019-02-07T07:26:56.678Z,85.02
2019-02-07T07:27:56.674Z,85.75
2019-02-07T07:28:56.659Z,86.06
2019-02-07T07:29:56.646Z,85.71
2019-02-07T07:30:56.637Z,85.40
2019-02-07T07:31:56.627Z,84.98
2019-02-07T07:32:56.705Z,85.19
2019-02-07T07:33:56.606Z,84.94
2019-02-07T07:34:56.593Z,85.67
2019-02-07T07:35:56.585Z,85.88
2019-02-07T07:36:56.573Z,86.23
2019-02-07T07:37:56.583Z,86.02
2019-02-07T07:38:56.631Z,86.43
2019-02-07T07:39:56.559Z,86.54
2019-02-07T07:40:56.535Z,86.54
2019-02-07T07:41:56.551Z,85.77
2019-02-07T07:42:56.507Z,85.67
2019-02-07T07:43:56.549Z,85.88
2019-02-07T07:44:56.487Z,86.18
2019-02-07T07:45:56.553Z,85.81
2019-02-07T07:46:56.491Z,86.23
2019-02-07T07:47:56.472Z,86.54
2019-02-07T07:48:56.468Z,87.06
2019-02-07T07:49:56.448Z,87.32
2019-02-07T07:50:56.439Z,87.64
2019-02-07T07:51:56.426Z,87.32
2019-02-07T07:52:56.411Z,87.01
2019-02-07T07:53:56.409Z,86.81
2019-02-07T07:54:56.388Z,87.01
2019-02-07T07:55:56.378Z,87.32
2019-02-07T07:56:56.355Z,86.81
2019-02-07T07:57:56.345Z,86.39
2019-02-07T07:58:56.334Z,86.04
2019-02-07T07:59:56.326Z,84.60
2019-02-07T08:00:56.313Z,84.80
2019-02-07T08:01:56.299Z,85.52
2019-02-07T08:02:56.292Z,84.91
2019-02-07T08:03:56.279Z,84.70
2019-02-07T08:04:56.268Z,84.91
2019-02-07T08:05:56.259Z,84.97
2019-02-07T08:06:56.246Z,85.07
2019-02-07T08:07:56.240Z,83.97
2019-02-07T08:08:56.225Z,85.21
2019-02-07T08:09:56.215Z,85.57
2019-02-07T08:10:56.205Z,85.67
2019-02-07T08:11:56.191Z,86.56
2019-02-07T08:12:56.182Z,86.77
2019-02-07T08:13:56.171Z,86.46
2019-02-07T08:14:56.160Z,85.63
2019-02-07T08:15:56.147Z,86.04
2019-02-07T08:16:59.032Z,86.87
2019-02-07T08:17:56.180Z,86.56
2019-02-07T08:18:56.155Z,85.83
2019-02-07T08:19:56.213Z,85.32
2019-02-07T08:20:56.095Z,86.35
2019-02-07T08:21:56.116Z,86.29
2019-02-07T08:22:56.072Z,86.87
2019-02-07T08:23:56.062Z,87.70
2019-02-07T08:24:56.083Z,87.18
2019-02-07T08:25:56.039Z,87.01
2019-02-07T08:26:56.068Z,88.01
2019-02-07T08:27:56.019Z,87.39
2019-02-07T08:28:56.006Z,87.18
2019-02-07T08:29:56.074Z,87.07
2019-02-07T08:30:56.006Z,86.46
2019-02-07T08:31:55.978Z,87.07
2019-02-07T08:32:55.997Z,87.76
2019-02-07T08:33:55.952Z,86.77
2019-02-07T08:34:55.967Z,86.73
2019-02-07T08:35:56.014Z,86.62
2019-02-07T08:36:55.929Z,86.52
2019-02-07T08:37:58.041Z,87.66
2019-02-07T08:38:55.926Z,88.07
2019-02-07T08:39:55.889Z,88.22
2019-02-07T08:40:55.964Z,87.49
2019-02-07T08:41:55.896Z,87.28
2019-02-07T08:42:55.876Z,87.28
2019-02-07T08:43:55.867Z,87.70
2019-02-07T08:44:55.836Z,88.17
2019-02-07T08:45:55.824Z,88.17
2019-02-07T08:46:55.867Z,87.45
2019-02-07T08:47:58.559Z,87.86
2019-02-07T08:48:55.807Z,88.28
2019-02-07T08:49:55.778Z,87.86
2019-02-07T08:50:55.777Z,87.96
2019-02-07T08:51:55.796Z,88.38
2019-02-07T08:52:55.745Z,88.48
2019-02-07T08:53:55.733Z,87.82
2019-02-07T08:54:55.722Z,88.65
2019-02-07T08:55:55.714Z,88.03
2019-02-07T08:56:55.705Z,87.31
2019-02-07T08:57:55.693Z,86.38
2019-02-07T08:58:55.682Z,86.13
2019-02-07T08:59:55.671Z,86.13
2019-02-07T09:00:55.659Z,86.50
2019-02-07T09:01:55.650Z,87.12
2019-02-07T09:02:55.653Z,87.43
2019-02-07T09:03:55.626Z,86.81
2019-02-07T09:04:55.617Z,85.12
2019-02-07T09:05:55.605Z,85.54
2019-02-07T09:06:55.609Z,85.94
2019-02-07T09:07:55.582Z,86.77
2019-02-07T09:08:55.572Z,87.08
2019-02-07T09:09:55.562Z,86.30
2019-02-07T09:10:55.552Z,85.72
2019-02-07T09:11:55.539Z,86.75
2019-02-07T09:12:55.529Z,87.47
2019-02-07T09:13:55.519Z,87.84
2019-02-07T09:14:55.507Z,87.95
2019-02-07T09:15:55.498Z,87.74
2019-02-07T09:16:55.485Z,88.26
2019-02-07T09:17:55.475Z,88.71
2019-02-07T09:18:55.463Z,88.88
2019-02-07T09:19:55.452Z,89.29
2019-02-07T09:20:55.441Z,89.50
2019-02-07T09:21:55.430Z,89.19
2019-02-07T09:22:55.418Z,88.36
2019-02-07T09:23:55.409Z,89.02
2019-02-07T09:24:55.398Z,89.48
2019-02-07T09:25:55.390Z,90.20
2019-02-07T09:26:55.377Z,90.78
2019-02-07T09:27:55.365Z,90.99
2019-02-07T09:28:55.356Z,89.54
2019-02-07T09:29:55.343Z,89.44
2019-02-07T09:30:55.333Z,90.36
2019-02-07T09:31:55.320Z,91.29
2019-02-07T09:32:55.311Z,90.36
2019-02-07T09:33:55.299Z,90.47
2019-02-07T09:34:55.289Z,90.78
2019-02-07T09:36:04.850Z,91.19
2019-02-07T09:37:16.450Z,90.84
2019-02-07T09:38:16.437Z,88.98
2019-02-07T09:39:16.426Z,89.39
2019-02-07T09:40:16.415Z,89.39
2019-02-07T09:41:16.404Z,89.60
2019-02-07T09:42:16.404Z,90.02
2019-02-07T09:43:16.386Z,90.22
2019-02-07T09:44:16.372Z,89.60
2019-02-07T09:45:16.359Z,89.08
2019-02-07T09:46:16.351Z,89.60
2019-02-07T09:47:16.338Z,90.11
2019-02-07T09:48:21.717Z,87.89
2019-02-07T09:49:16.315Z,88.61
2019-02-07T09:50:16.306Z,89.75
2019-02-07T09:51:16.302Z,89.54
2019-02-07T09:52:16.290Z,89.33
2019-02-07T09:53:23.700Z,88.61
2019-02-07T09:54:17.280Z,88.09
2019-02-07T09:55:16.260Z,88.20
2019-02-07T09:56:16.239Z,88.57
2019-02-07T09:57:16.232Z,89.08
2019-02-07T09:58:16.218Z,89.19
2019-02-07T09:59:16.211Z,89.50
2019-02-07T10:00:16.200Z,89.95
2019-02-07T10:01:16.188Z,89.23
2019-02-07T10:02:16.176Z,89.44
2019-02-07T10:03:16.172Z,90.05
2019-02-07T10:04:16.156Z,90.57
2019-02-07T10:05:16.144Z,90.26
2019-02-07T10:06:16.136Z,90.05
2019-02-07T10:07:16.121Z,88.92
2019-02-07T10:08:16.111Z,89.95
2019-02-07T10:09:16.099Z,90.47
2019-02-07T10:10:16.093Z,90.67
2019-02-07T10:11:16.080Z,90.84
2019-02-07T10:12:16.073Z,91.15
2019-02-07T10:13:16.056Z,90.63
2019-02-07T10:14:16.055Z,89.75
2019-02-07T10:15:16.037Z,89.54
2019-02-07T10:16:16.024Z,90.36
2019-02-07T10:17:16.013Z,90.78
2019-02-07T10:18:16.003Z,90.57
2019-02-07T10:19:15.996Z,90.11
2019-02-07T10:20:15.981Z,89.64
2019-02-07T10:21:15.970Z,89.54
2019-02-07T10:22:15.961Z,90.47
2019-02-07T10:23:15.950Z,91.50
2019-02-07T10:24:15.944Z,91.87
2019-02-07T10:25:15.925Z,91.35
2019-02-07T10:26:15.915Z,91.25
2019-02-07T10:27:15.904Z,91.15
2019-02-07T10:28:15.895Z,90.80
2019-02-07T10:29:15.882Z,90.59
2019-02-07T10:30:15.871Z,90.80
2019-02-07T10:31:15.864Z,90.90
2019-02-07T10:32:15.849Z,89.66
2019-02-07T10:33:15.838Z,88.84
2019-02-07T10:34:15.829Z,88.80
2019-02-07T10:35:22.579Z,88.90
2019-02-07T10:36:36.996Z,88.34
2019-02-07T10:37:36.984Z,89.17
2019-02-07T10:38:36.973Z,88.61
2019-02-07T10:39:37.008Z,87.89
2019-02-07T10:40:36.951Z,88.36
2019-02-07T10:41:36.941Z,88.57
2019-02-07T10:42:36.930Z,88.22
2019-02-07T10:43:36.919Z,87.46
2019-02-07T10:44:36.907Z,87.77
2019-02-07T10:45:36.897Z,87.93
2019-02-07T10:46:36.887Z,85.43
2019-02-07T10:47:36.874Z,84.33
2019-02-07T10:48:44.251Z,85.57
2019-02-07T10:49:59.536Z,83.61
2019-02-07T10:50:58.021Z,85.67
2019-02-07T10:51:58.010Z,83.67
2019-02-07T10:52:58.009Z,83.37
2019-02-07T10:53:57.989Z,84.29
2019-02-07T10:54:57.987Z,83.67
2019-02-07T10:55:57.971Z,84.29
2019-02-07T10:56:57.956Z,83.88
2019-02-07T10:57:57.943Z,83.47
2019-02-07T10:58:57.934Z,82.44
2019-02-07T10:59:57.925Z,82.14
2019-02-07T11:00:57.910Z,81.42
2019-02-07T11:01:57.900Z,81.28
2019-02-07T11:02:57.889Z,82.37
2019-02-07T11:03:57.877Z,82.06
2019-02-07T11:04:57.865Z,82.23
2019-02-07T11:05:57.853Z,80.17
2019-02-07T11:06:57.844Z,80.99
2019-02-07T11:07:57.832Z,82.12
2019-02-07T11:08:57.819Z,79.15
2019-02-07T11:09:57.816Z,79.04
2019-02-07T11:10:57.797Z,79.93
2019-02-07T11:11:57.787Z,78.43
2019-02-07T11:12:57.777Z,78.90
2019-02-07T11:13:57.764Z,79.11
2019-02-07T11:14:57.755Z,79.11
2019-02-07T11:15:57.743Z,80.65
2019-02-07T11:16:57.731Z,79.25
2019-02-07T11:17:57.719Z,77.19
2019-02-07T11:18:57.709Z,77.61
2019-02-07T11:19:57.697Z,78.12
2019-02-07T11:20:57.686Z,78.43
2019-02-07T11:21:57.673Z,78.74
2019-02-07T11:22:57.664Z,78.84
2019-02-07T11:23:57.656Z,77.44
2019-02-07T11:24:57.641Z,78.36
2019-02-07T11:25:57.630Z,78.22
2019-02-07T11:26:57.620Z,78.53
2019-02-07T11:27:57.610Z,78.60
2019-02-07T11:28:57.599Z,77.22
2019-02-07T11:29:57.586Z,77.94
2019-02-07T11:30:57.576Z,76.58
2019-02-07T11:31:57.566Z,76.03
2019-02-07T11:32:57.553Z,75.45
2019-02-07T11:33:57.546Z,76.47
2019-02-07T11:34:57.533Z,75.86
2019-02-07T11:35:57.526Z,75.96
2019-02-07T11:36:57.511Z,76.06
2019-02-07T11:37:57.499Z,74.25
2019-02-07T11:38:57.486Z,74.93
2019-02-07T11:39:57.477Z,74.93
2019-02-07T11:40:57.466Z,73.91
2019-02-07T11:41:57.452Z,74.32
2019-02-07T11:42:57.443Z,71.41
2019-02-07T11:43:57.432Z,73.40
2019-02-07T11:44:57.420Z,74.63
2019-02-07T11:45:57.409Z,75.14
2019-02-07T11:47:05.227Z,76.37
2019-02-07T11:48:18.568Z,73.50
2019-02-07T11:49:18.555Z,74.53
2019-02-07T11:50:18.544Z,73.87
2019-02-07T11:51:18.534Z,73.67
2019-02-07T11:52:18.523Z,73.80
2019-02-07T11:53:18.512Z,75.55
2019-02-07T11:54:18.502Z,72.27
2019-02-07T11:55:18.490Z,72.17
2019-02-07T11:56:18.478Z,71.92
2019-02-07T11:57:18.468Z,73.60
2019-02-07T11:58:18.456Z,71.66
2019-02-07T11:59:18.445Z,72.07
2019-02-07T12:00:18.433Z,71.72
2019-02-07T12:01:18.424Z,74.21
2019-02-07T12:02:18.413Z,73.91
2019-02-07T12:03:18.401Z,72.99
2019-02-07T12:04:18.389Z,73.50
2019-02-07T12:05:18.386Z,74.01
2019-02-07T12:06:18.368Z,73.46
2019-02-07T12:07:18.355Z,74.21
2019-02-07T12:08:18.346Z,75.04
2019-02-07T12:09:18.334Z,74.70
2019-02-07T12:10:18.323Z,74.18
2019-02-07T12:11:18.314Z,72.95
2019-02-07T12:12:18.301Z,71.35
2019-02-07T12:13:18.291Z,72.24
2019-02-07T12:14:18.282Z,73.36
2019-02-07T12:15:18.271Z,70.19
2019-02-07T12:16:18.256Z,70.91
2019-02-07T12:17:18.247Z,72.24
2019-02-07T12:18:18.235Z,72.85
2019-02-07T12:19:18.442Z,73.16
2019-02-07T12:20:18.213Z,72.03
2019-02-07T12:21:18.203Z,72.58
2019-02-07T12:22:18.196Z,72.47
2019-02-07T12:23:18.179Z,74.01
2019-02-07T12:24:18.169Z,71.14
2019-02-07T12:25:18.159Z,71.96
2019-02-07T12:26:18.148Z,71.00
2019-02-07T12:27:18.136Z,71.83
2019-02-07T12:28:18.130Z,72.95
2019-02-07T12:29:18.115Z,72.75
2019-02-07T12:30:18.107Z,73.16
2019-02-07T12:31:18.093Z,72.65
2019-02-07T12:32:18.086Z,70.42
2019-02-07T12:33:18.072Z,71.11
2019-02-07T12:34:18.061Z,70.32
2019-02-07T12:35:18.051Z,70.25
2019-02-07T12:36:18.037Z,70.73
2019-02-07T12:37:18.026Z,70.73
2019-02-07T12:38:18.016Z,70.73
2019-02-07T12:39:18.006Z,72.17
2019-02-07T12:40:17.995Z,73.29
2019-02-07T12:41:17.982Z,72.78
2019-02-07T12:42:17.978Z,72.47
2019-02-07T12:43:17.969Z,72.47
2019-02-07T12:44:17.953Z,69.81
2019-02-07T12:45:17.939Z,69.26
2019-02-07T12:46:17.928Z,69.06
2019-02-07T12:47:17.917Z,69.29
2019-02-07T12:48:17.907Z,68.89
2019-02-07T12:49:28.704Z,68.99
2019-02-07T12:50:39.064Z,70.73
2019-02-07T12:51:39.051Z,72.27
2019-02-07T12:52:39.040Z,71.11
2019-02-07T12:53:39.030Z,69.78
2019-02-07T12:54:39.019Z,68.96
2019-02-07T12:55:39.008Z,69.67
2019-02-07T12:56:38.998Z,70.19